createdAt,value
2018-03-29T00:01:19.483Z,3.23
2018-03-29T00:03:47.875Z,3.43
2018-03-29T00:06:15.299Z,3.13
2018-03-29T00:08:43.732Z,3.80
2018-03-29T00:11:11.176Z,3.07
2018-03-29T00:13:38.661Z,3.03
2018-03-29T00:16:06.192Z,4.10
2018-03-29T00:18:33.633Z,3.40
2018-03-29T00:21:01.092Z,3.90
2018-03-29T00:23:29.065Z,3.20
2018-03-29T00:25:56.928Z,3.30
2018-03-29T00:28:24.399Z,3.30
2018-03-29T00:30:52.424Z,3.60
2018-03-29T00:33:19.879Z,3.80
2018-03-29T00:35:47.325Z,3.53
2018-03-29T00:38:14.830Z,2.90
2018-03-29T00:40:42.751Z,3.27
2018-03-29T00:43:10.212Z,2.93
2018-03-29T00:45:38.796Z,2.77
2018-03-29T00:48:06.264Z,2.67
2018-03-29T00:50:33.736Z,3.07
2018-03-29T00:53:07.474Z,2.90
2018-03-29T00:55:35.001Z,3.40
2018-03-29T00:58:02.462Z,3.20
2018-03-29T01:00:29.896Z,4.20
2018-03-29T01:02:57.380Z,3.60
2018-03-29T01:05:24.839Z,3.10
2018-03-29T01:07:52.915Z,3.93
2018-03-29T01:10:20.495Z,3.60
2018-03-29T01:12:48.001Z,3.37
2018-03-29T01:15:15.485Z,2.90
2018-03-29T01:17:42.973Z,2.40
2018-03-29T01:20:10.416Z,3.00
2018-03-29T01:22:38.432Z,2.60
2018-03-29T01:25:05.959Z,2.90
2018-03-29T01:27:33.389Z,3.13
2018-03-29T01:30:00.927Z,2.67
2018-03-29T01:32:34.999Z,2.33
2018-03-29T01:35:03.054Z,2.70
2018-03-29T01:37:30.494Z,2.90
2018-03-29T01:39:58.238Z,2.40
2018-03-29T01:42:25.691Z,3.23
2018-03-29T01:44:53.109Z,2.90
2018-03-29T01:47:20.548Z,3.10
2018-03-29T01:49:47.994Z,2.60
2018-03-29T01:52:15.480Z,2.63
2018-03-29T01:54:43.007Z,2.60
2018-03-29T01:57:10.418Z,2.70
2018-03-29T01:59:37.869Z,2.60
2018-03-29T02:02:05.314Z,2.40
2018-03-29T02:04:32.793Z,2.67
2018-03-29T02:07:00.315Z,2.63
2018-03-29T02:09:27.815Z,2.90
2018-03-29T02:11:55.385Z,2.47
2018-03-29T02:14:22.848Z,2.53
2018-03-29T02:16:50.845Z,2.53
2018-03-29T02:19:18.278Z,2.60
2018-03-29T02:21:45.684Z,2.50
2018-03-29T02:24:13.106Z,2.53
2018-03-29T02:26:41.448Z,2.20
2018-03-29T02:29:08.928Z,2.50
2018-03-29T02:31:36.396Z,2.33
2018-03-29T02:34:03.914Z,2.90
2018-03-29T02:36:31.334Z,2.90
2018-03-29T02:38:58.759Z,2.50
2018-03-29T02:41:26.214Z,2.70
2018-03-29T02:43:53.708Z,2.47
2018-03-29T02:46:21.120Z,2.57
2018-03-29T02:48:48.568Z,2.33
2018-03-29T02:51:15.993Z,2.40
2018-03-29T02:53:43.418Z,2.50
2018-03-29T02:56:10.858Z,2.90
2018-03-29T02:58:38.294Z,3.37
2018-03-29T03:01:05.838Z,3.30
2018-03-29T03:03:33.282Z,3.03
2018-03-29T03:06:00.707Z,3.07
2018-03-29T03:08:28.221Z,2.80
2018-03-29T03:10:56.417Z,2.80
2018-03-29T03:13:23.842Z,2.57
2018-03-29T03:15:51.337Z,2.63
2018-03-29T03:18:19.383Z,2.83
2018-03-29T03:20:47.557Z,2.80
2018-03-29T03:23:15.038Z,3.30
2018-03-29T03:25:42.487Z,3.57
2018-03-29T03:28:10.671Z,2.93
2018-03-29T03:30:38.145Z,3.10
2018-03-29T03:33:06.652Z,3.70
2018-03-29T03:35:34.164Z,4.00
2018-03-29T03:38:01.657Z,4.00
2018-03-29T03:40:29.061Z,3.53
2018-03-29T03:42:57.401Z,3.33
2018-03-29T03:45:25.136Z,3.37
2018-03-29T03:47:53.562Z,3.50
2018-03-29T03:50:20.969Z,3.97
2018-03-29T03:52:48.458Z,3.10
2018-03-29T03:55:15.896Z,2.73
2018-03-29T03:57:43.310Z,3.17
2018-03-29T04:00:10.777Z,2.93
2018-03-29T04:02:38.256Z,3.07
2018-03-29T04:05:05.790Z,4.10
2018-03-29T04:07:33.411Z,2.80
2018-03-29T04:10:00.883Z,2.57
2018-03-29T04:12:28.810Z,3.10
2018-03-29T04:14:56.261Z,3.47
2018-03-29T04:17:24.347Z,3.00
2018-03-29T04:19:51.750Z,3.90
2018-03-29T04:22:19.214Z,4.30
2018-03-29T04:24:47.413Z,3.20
2018-03-29T04:27:14.836Z,3.40
2018-03-29T04:29:43.062Z,3.17
2018-03-29T04:32:10.520Z,3.83
2018-03-29T04:34:38.033Z,4.03
2018-03-29T04:37:05.519Z,5.00
2018-03-29T04:39:33.410Z,4.80
2018-03-29T04:42:00.854Z,4.67
2018-03-29T04:44:28.403Z,4.47
2018-03-29T04:46:55.888Z,4.40
2018-03-29T04:49:23.323Z,5.10
2018-03-29T04:51:50.845Z,4.73
2018-03-29T04:54:18.354Z,7.23
2018-03-29T04:56:45.798Z,7.30
2018-03-29T04:59:13.299Z,5.47
2018-03-29T05:01:41.453Z,3.93
2018-03-29T05:04:08.890Z,6.03
2018-03-29T05:06:36.403Z,6.40
2018-03-29T05:09:04.604Z,6.27
2018-03-29T05:11:32.153Z,7.23
2018-03-29T05:16:33.418Z,8.13
2018-03-29T05:19:00.955Z,8.67
2018-03-29T05:21:28.483Z,6.60
2018-03-29T05:23:55.911Z,7.47
2018-03-29T05:26:23.487Z,6.00
2018-03-29T05:28:52.056Z,5.60
2018-03-29T05:31:19.677Z,6.73
2018-03-29T05:33:47.568Z,6.77
2018-03-29T05:36:15.371Z,7.53
2018-03-29T05:38:43.264Z,5.70
2018-03-29T05:41:10.716Z,13.50
2018-03-29T05:43:38.231Z,8.60
2018-03-29T05:46:05.706Z,8.30
2018-03-29T05:48:33.727Z,8.13
2018-03-29T05:51:01.223Z,7.23
2018-03-29T05:53:29.186Z,7.37
2018-03-29T05:55:56.737Z,9.23
2018-03-29T05:58:24.220Z,9.57
2018-03-29T06:00:51.692Z,9.73
2018-03-29T06:03:19.232Z,8.77
2018-03-29T06:05:46.876Z,10.10
2018-03-29T06:08:15.051Z,8.13
2018-03-29T06:10:42.511Z,7.93
2018-03-29T06:16:09.462Z,9.47
2018-03-29T06:18:36.949Z,6.73
2018-03-29T06:21:04.519Z,6.33
2018-03-29T06:23:31.968Z,6.23
2018-03-29T06:25:59.523Z,6.33
2018-03-29T06:28:28.812Z,6.93
2018-03-29T06:30:57.987Z,5.47
2018-03-29T06:33:25.667Z,5.07
2018-03-29T06:35:58.804Z,10.83
2018-03-29T06:38:26.337Z,6.07
2018-03-29T06:40:56.985Z,6.73
2018-03-29T06:43:27.051Z,5.90
2018-03-29T06:45:59.363Z,5.30
2018-03-29T06:48:30.631Z,6.70
2018-03-29T06:50:58.164Z,4.53
2018-03-29T06:53:25.671Z,4.43
2018-03-29T06:55:53.314Z,5.40
2018-03-29T06:58:21.492Z,8.03
2018-03-29T07:00:48.983Z,7.53
2018-03-29T07:03:16.460Z,12.13
2018-03-29T07:05:44.885Z,10.33
2018-03-29T07:08:12.468Z,11.53
2018-03-29T07:10:39.965Z,5.07
2018-03-29T07:13:07.700Z,5.13
2018-03-29T07:15:36.309Z,2.50
2018-03-29T07:18:04.429Z,2.40
2018-03-29T07:20:32.400Z,2.10
2018-03-29T07:23:00.028Z,1.60
2018-03-29T07:25:36.277Z,1.40
2018-03-29T07:28:10.010Z,1.70
2018-03-29T07:30:52.787Z,0.80
2018-03-29T07:33:20.692Z,1.10
2018-03-29T07:38:30.832Z,1.10
2018-03-29T07:40:59.331Z,1.20
2018-03-29T07:43:28.318Z,1.47
2018-03-29T07:45:59.152Z,1.80
2018-03-29T07:51:08.811Z,1.20
2018-03-29T07:53:36.314Z,1.63
2018-03-29T07:56:05.363Z,1.43
2018-03-29T07:59:00.577Z,1.30
2018-03-29T08:04:40.219Z,1.80
2018-03-29T08:09:45.088Z,1.43
2018-03-29T08:26:13.917Z,1.00
2018-03-29T08:33:07.207Z,3.20
2018-03-29T08:35:43.090Z,1.63
2018-03-29T08:38:11.995Z,1.67
2018-03-29T08:40:40.466Z,2.00
2018-03-29T08:43:09.589Z,1.40
2018-03-29T08:52:39.369Z,1.50
2018-03-29T08:55:22.117Z,2.20
2018-03-29T08:57:57.112Z,1.40
2018-03-29T09:03:16.085Z,1.47
2018-03-29T09:06:06.042Z,2.00
2018-03-29T09:08:35.263Z,0.90
2018-03-29T09:14:13.559Z,1.20
2018-03-29T09:17:02.968Z,1.50
2018-03-29T09:19:30.485Z,1.50
2018-03-29T09:21:57.970Z,1.10
2018-03-29T09:24:25.542Z,1.23
2018-03-29T09:26:53.309Z,1.27
2018-03-29T09:29:20.796Z,1.00
2018-03-29T09:31:48.274Z,1.70
2018-03-29T09:35:21.269Z,1.43
2018-03-29T09:38:03.893Z,1.53
2018-03-29T09:40:35.855Z,1.80
2018-03-29T09:43:03.964Z,1.93
2018-03-29T09:45:32.138Z,1.30
2018-03-29T09:48:01.022Z,1.33
2018-03-29T09:56:20.328Z,2.13
2018-03-29T09:58:48.269Z,1.20
2018-03-29T10:01:16.431Z,1.27
2018-03-29T10:03:59.724Z,1.00
2018-03-29T10:06:34.688Z,1.30
2018-03-29T10:09:02.586Z,0.90
2018-03-29T10:11:30.098Z,1.27
2018-03-29T10:13:57.583Z,1.63
2018-03-29T10:16:25.144Z,1.23
2018-03-29T10:18:52.657Z,1.23
2018-03-29T10:21:20.121Z,0.90
2018-03-29T10:23:48.598Z,1.10
2018-03-29T10:26:16.060Z,2.33
2018-03-29T10:28:43.550Z,0.90
2018-03-29T10:31:11.813Z,0.80
2018-03-29T10:33:39.988Z,1.10
2018-03-29T10:36:07.408Z,1.00
2018-03-29T10:38:34.986Z,1.40
2018-03-29T10:41:02.449Z,0.70
2018-03-29T10:43:30.472Z,1.10
2018-03-29T10:45:58.179Z,1.40
2018-03-29T10:48:26.210Z,1.00
2018-03-29T10:50:53.636Z,1.20
2018-03-29T10:53:21.100Z,0.83
2018-03-29T10:55:48.532Z,0.73
2018-03-29T10:58:16.005Z,0.80
2018-03-29T11:00:43.617Z,0.80
2018-03-29T11:03:11.945Z,0.90
2018-03-29T11:05:39.390Z,0.90
2018-03-29T11:08:07.109Z,0.73
2018-03-29T11:10:35.658Z,1.00
2018-03-29T11:13:03.249Z,0.70
2018-03-29T11:15:30.704Z,0.90
2018-03-29T11:17:58.339Z,0.63
2018-03-29T11:20:26.259Z,0.60
2018-03-29T11:22:53.859Z,1.50
2018-03-29T11:25:21.328Z,1.03
2018-03-29T11:27:49.467Z,0.93
2018-03-29T11:30:16.952Z,0.80
2018-03-29T11:32:44.781Z,1.10
2018-03-29T11:35:12.963Z,1.00
2018-03-29T11:37:40.432Z,1.00
2018-03-29T11:40:07.997Z,0.90
2018-03-29T11:42:35.526Z,0.90
2018-03-29T11:45:03.081Z,0.70
2018-03-29T11:47:30.793Z,1.17
2018-03-29T11:49:58.384Z,1.40
2018-03-29T11:52:25.857Z,0.97
2018-03-29T11:54:53.320Z,0.90
2018-03-29T11:57:21.387Z,0.80
2018-03-29T11:59:48.819Z,0.90
2018-03-29T12:02:16.274Z,0.90
2018-03-29T12:04:43.723Z,0.80
2018-03-29T12:07:11.238Z,1.70
2018-03-29T12:09:38.687Z,3.03
2018-03-29T12:12:06.514Z,1.03
2018-03-29T12:14:33.992Z,1.13
2018-03-29T12:17:01.428Z,0.77
2018-03-29T12:19:28.893Z,1.10
2018-03-29T12:21:57.105Z,0.80
2018-03-29T12:24:24.565Z,1.40
2018-03-29T12:26:52.017Z,0.90
2018-03-29T12:29:19.639Z,2.03
2018-03-29T12:31:47.824Z,1.23
2018-03-29T12:34:16.178Z,1.40
2018-03-29T12:36:43.648Z,1.20
2018-03-29T12:39:11.116Z,0.90
2018-03-29T12:41:38.625Z,1.27
2018-03-29T12:44:06.167Z,1.87
2018-03-29T12:46:33.619Z,1.00
2018-03-29T12:49:01.358Z,0.70
2018-03-29T12:51:28.907Z,0.80
2018-03-29T12:53:57.280Z,0.80
2018-03-29T12:56:30.793Z,1.20
2018-03-29T12:58:58.291Z,0.87
2018-03-29T13:01:27.460Z,0.83
2018-03-29T13:03:54.987Z,0.80
2018-03-29T13:06:22.466Z,3.10
2018-03-29T13:08:50.142Z,1.40
2018-03-29T13:11:17.649Z,0.90
2018-03-29T13:13:45.139Z,0.70
2018-03-29T13:16:12.560Z,0.70
2018-03-29T13:18:40.136Z,0.83
2018-03-29T13:21:07.607Z,1.00
2018-03-29T13:23:35.124Z,0.90
2018-03-29T13:26:02.618Z,1.00
2018-03-29T13:28:30.320Z,1.00
2018-03-29T13:31:00.146Z,1.50
2018-03-29T13:33:29.371Z,1.10
2018-03-29T13:35:57.256Z,0.50
2018-03-29T13:38:24.704Z,0.87
2018-03-29T13:40:52.164Z,0.77
2018-03-29T13:43:20.155Z,1.13
2018-03-29T13:45:48.011Z,0.80
2018-03-29T13:48:18.581Z,0.90
2018-03-29T13:50:47.342Z,0.77
2018-03-29T13:53:20.059Z,0.83
2018-03-29T13:55:49.528Z,0.63
2018-03-29T13:58:18.212Z,0.90
2018-03-29T14:00:46.604Z,1.23
2018-03-29T14:03:14.222Z,1.03
2018-03-29T14:05:41.624Z,1.40
2018-03-29T14:08:09.781Z,0.80
2018-03-29T14:10:37.614Z,2.30
2018-03-29T14:13:06.451Z,0.90
2018-03-29T14:15:33.915Z,1.13
2018-03-29T14:18:02.136Z,1.17
2018-03-29T14:20:29.680Z,1.00
2018-03-29T14:22:57.288Z,1.37
2018-03-29T14:25:24.723Z,1.23
2018-03-29T14:27:52.188Z,0.80
2018-03-29T14:30:19.726Z,1.43
2018-03-29T14:32:48.263Z,0.80
2018-03-29T14:35:15.771Z,0.80
2018-03-29T14:37:43.555Z,1.20
2018-03-29T14:40:11.070Z,1.07
2018-03-29T14:42:38.580Z,0.90
2018-03-29T14:45:06.158Z,1.33
2018-03-29T14:47:33.625Z,1.10
2018-03-29T14:50:01.086Z,0.97
2018-03-29T14:52:28.570Z,1.07
2018-03-29T14:54:56.100Z,0.73
2018-03-29T14:57:23.628Z,0.90
2018-03-29T14:59:51.156Z,0.80
2018-03-29T15:02:19.653Z,0.90
2018-03-29T15:04:47.813Z,0.73
2018-03-29T15:07:15.539Z,1.10
2018-03-29T15:09:45.693Z,1.20
2018-03-29T15:12:13.178Z,1.40
2018-03-29T15:14:42.248Z,0.87
2018-03-29T15:17:10.572Z,1.13
2018-03-29T15:19:40.079Z,0.90
2018-03-29T15:22:07.859Z,1.10
2018-03-29T15:24:35.315Z,0.90
2018-03-29T15:27:02.864Z,1.27
2018-03-29T15:29:31.645Z,1.00
2018-03-29T15:31:59.280Z,0.90
2018-03-29T15:34:27.470Z,0.97
2018-03-29T15:36:55.249Z,0.70
2018-03-29T15:39:22.703Z,0.90
2018-03-29T15:41:50.149Z,0.83
2018-03-29T15:44:17.672Z,0.73
2018-03-29T15:46:45.282Z,1.17
2018-03-29T15:49:13.171Z,1.27
2018-03-29T15:51:40.733Z,1.50
2018-03-29T15:54:08.142Z,0.77
2018-03-29T15:56:36.312Z,1.10
2018-03-29T15:59:04.486Z,0.70
2018-03-29T16:01:32.016Z,1.47
2018-03-29T16:03:59.478Z,1.40
2018-03-29T16:06:27.258Z,2.23
2018-03-29T16:08:55.881Z,1.63
2018-03-29T16:11:23.615Z,1.90
2018-03-29T16:13:52.204Z,1.10
2018-03-29T16:16:19.859Z,1.40
2018-03-29T16:21:37.337Z,1.40
2018-03-29T16:24:29.264Z,1.37
2018-03-29T16:27:01.476Z,1.23
2018-03-29T16:32:01.742Z,1.53
2018-03-29T16:34:29.184Z,2.40
2018-03-29T16:36:56.825Z,1.50
2018-03-29T16:39:24.348Z,1.33
2018-03-29T16:41:51.843Z,2.00
2018-03-29T16:44:33.149Z,1.17
2018-03-29T16:47:00.700Z,1.77
2018-03-29T16:49:28.981Z,1.43
2018-03-29T16:52:08.258Z,1.57
2018-03-29T16:54:36.696Z,1.30
2018-03-29T16:57:17.179Z,1.27
2018-03-29T17:00:08.079Z,1.43
2018-03-29T17:02:37.476Z,1.40
2018-03-29T17:05:06.057Z,1.33
2018-03-29T17:07:34.081Z,1.50
2018-03-29T17:10:01.552Z,1.40
2018-03-29T17:12:29.436Z,1.87
2018-03-29T17:14:56.877Z,1.50
2018-03-29T17:17:24.415Z,1.50
2018-03-29T17:19:51.919Z,2.10
2018-03-29T17:22:19.545Z,1.97
2018-03-29T17:24:47.574Z,1.70
2018-03-29T17:27:17.318Z,1.63
2018-03-29T17:29:45.586Z,1.50
2018-03-29T17:32:13.080Z,1.47
2018-03-29T17:34:40.538Z,1.33
2018-03-29T17:37:07.976Z,2.00
2018-03-29T17:39:35.488Z,1.63
2018-03-29T17:42:04.200Z,2.17
2018-03-29T17:44:31.764Z,2.20
2018-03-29T17:46:59.300Z,2.10
2018-03-29T17:49:26.808Z,2.40
2018-03-29T17:51:54.274Z,1.70
2018-03-29T17:54:21.824Z,1.90
2018-03-29T17:56:49.266Z,1.40
2018-03-29T17:59:16.745Z,1.53
2018-03-29T18:01:44.274Z,1.30
2018-03-29T18:04:11.819Z,1.67
2018-03-29T18:06:39.342Z,1.77
2018-03-29T18:09:06.855Z,1.70
2018-03-29T18:11:34.409Z,1.53
2018-03-29T18:14:01.871Z,1.70
2018-03-29T18:16:29.439Z,2.00
2018-03-29T18:18:56.953Z,2.03
2018-03-29T18:21:24.514Z,1.70
2018-03-29T18:23:52.031Z,1.23
2018-03-29T18:26:19.515Z,1.60
2018-03-29T18:28:47.009Z,1.60
2018-03-29T18:31:14.460Z,1.50
2018-03-29T18:33:41.923Z,1.90
2018-03-29T18:36:09.384Z,1.40
2018-03-29T18:38:36.858Z,1.70
2018-03-29T18:41:05.210Z,1.67
2018-03-29T18:43:32.666Z,1.87
2018-03-29T18:46:00.119Z,1.70
2018-03-29T18:48:27.604Z,1.80
2018-03-29T18:50:55.121Z,1.80
2018-03-29T18:53:22.705Z,1.70
2018-03-29T18:55:54.461Z,1.70
2018-03-29T18:58:26.952Z,2.03
2018-03-29T19:00:54.536Z,2.13
2018-03-29T19:03:29.029Z,1.87
2018-03-29T19:08:32.775Z,1.83
2018-03-29T19:11:18.997Z,2.23
2018-03-29T19:13:52.344Z,2.23
2018-03-29T19:16:19.926Z,2.47
2018-03-29T19:18:47.378Z,2.40
2018-03-29T19:21:14.895Z,2.20
2018-03-29T19:23:42.375Z,2.43
2018-03-29T19:26:09.961Z,2.40
2018-03-29T19:28:37.467Z,2.30
2018-03-29T19:31:04.992Z,2.60
2018-03-29T19:33:32.445Z,3.10
2018-03-29T19:35:59.893Z,2.20
2018-03-29T19:38:27.394Z,2.83
2018-03-29T19:40:54.845Z,2.20
2018-03-29T19:43:22.337Z,2.57
2018-03-29T19:45:49.840Z,2.27
2018-03-29T19:48:17.274Z,2.77
2018-03-29T19:50:44.694Z,2.90
2018-03-29T19:53:12.274Z,2.87
2018-03-29T19:55:39.732Z,3.20
2018-03-29T19:58:07.270Z,3.10
2018-03-29T20:00:34.924Z,2.60
2018-03-29T20:03:02.449Z,2.30
2018-03-29T20:05:29.886Z,2.43
2018-03-29T20:07:57.459Z,1.90
2018-03-29T20:10:24.951Z,2.90
2018-03-29T20:13:01.102Z,2.37
2018-03-29T20:15:35.617Z,2.40
2018-03-29T20:18:26.145Z,2.40
2018-03-29T20:20:53.600Z,2.63
2018-03-29T20:23:21.068Z,2.40
2018-03-29T20:25:48.587Z,2.60
2018-03-29T20:28:16.030Z,2.50
2018-03-29T20:30:43.472Z,2.27
2018-03-29T20:33:10.941Z,2.60
2018-03-29T20:35:38.411Z,2.93
2018-03-29T20:38:05.856Z,2.53
2018-03-29T20:40:33.347Z,2.50
2018-03-29T20:43:00.886Z,2.80
2018-03-29T20:45:28.360Z,2.40
2018-03-29T20:47:55.837Z,2.43
2018-03-29T20:50:23.371Z,2.20
2018-03-29T20:52:50.851Z,2.33
2018-03-29T20:55:18.326Z,2.00
2018-03-29T20:57:45.783Z,2.50
2018-03-29T21:00:13.365Z,1.90
2018-03-29T21:02:41.120Z,2.20
2018-03-29T21:05:09.407Z,2.00
2018-03-29T21:07:37.065Z,2.20
2018-03-29T21:18:41.601Z,2.10
2018-03-29T21:21:09.868Z,2.10
2018-03-29T21:23:45.780Z,1.73
2018-03-29T21:26:23.432Z,1.93
2018-03-29T21:32:00.028Z,2.10
2018-03-29T21:34:35.028Z,2.20
2018-03-29T21:37:05.500Z,2.00
2018-03-29T21:39:35.779Z,2.33
2018-03-29T21:42:03.396Z,2.23
2018-03-29T21:44:30.922Z,2.27
2018-03-29T21:47:00.367Z,1.93
2018-03-29T21:49:30.623Z,2.67
2018-03-29T21:54:43.754Z,2.20
2018-03-29T21:57:11.874Z,2.00
2018-03-29T21:59:41.368Z,1.97
2018-03-29T22:02:12.313Z,1.90
2018-03-29T22:04:41.437Z,2.00
2018-03-29T22:07:18.935Z,1.93
2018-03-29T22:09:49.991Z,2.17
2018-03-29T22:23:51.628Z,1.90
2018-03-29T22:26:19.087Z,1.73
2018-03-29T22:28:46.509Z,1.87
2018-03-29T22:31:13.942Z,1.90
2018-03-29T22:33:41.453Z,2.00
2018-03-29T22:36:08.893Z,2.17
2018-03-29T22:38:36.343Z,1.77
2018-03-29T22:41:04.060Z,1.80
2018-03-29T22:43:31.623Z,1.80
2018-03-29T22:45:59.114Z,1.57
2018-03-29T22:48:26.698Z,1.47
2018-03-29T22:50:54.264Z,1.67
2018-03-29T22:53:21.752Z,1.80
2018-03-29T22:55:52.690Z,1.57
2018-03-29T22:58:21.130Z,1.70
2018-03-29T23:00:48.691Z,1.90
2018-03-29T23:03:16.281Z,2.00
2018-03-29T23:05:50.159Z,1.93
2018-03-29T23:08:41.552Z,2.07
2018-03-29T23:11:16.518Z,1.80
2018-03-29T23:13:47.071Z,1.83
2018-03-29T23:16:17.643Z,2.07
2018-03-29T23:18:45.869Z,2.10
2018-03-29T23:21:13.297Z,1.90
2018-03-29T23:23:40.709Z,1.67
2018-03-29T23:26:08.156Z,1.70
2018-03-29T23:28:35.565Z,1.77
2018-03-29T23:31:03.060Z,1.70
2018-03-29T23:33:30.499Z,1.80
2018-03-29T23:35:57.950Z,1.73
2018-03-29T23:38:25.343Z,1.43
2018-03-29T23:40:52.828Z,1.63
2018-03-29T23:43:20.229Z,1.67
2018-03-29T23:45:47.938Z,1.47
2018-03-29T23:48:16.774Z,1.90
2018-03-29T23:50:50.993Z,2.07
2018-03-29T23:53:26.614Z,1.90
2018-03-29T23:56:05.238Z,1.67
2018-03-29T23:58:32.998Z,1.60
